Time;durP1;ratioP1;P1;durP2;ratioP2;P2;SDS_P1;SDS_P2;PMS_P1;PMS_P2;Temp;Humidity;BMP_temperature;BMP_pressure;BME280_temperature;BME280_humidity;BME280_pressure;Samples;Min_cycle;Max_cycle;Signal;HPM_P1;HPM_P2
2023/06/18 00:00:53;;;;;;;;;17.75;16.75;;;;;;;;5089481;27;46283;-71
2023/06/18 00:03:18;;;;;;;;;17.75;16.50;;;;;;;;5090253;27;45523;-71
2023/06/18 00:05:44;;;;;;;;;17.75;16.00;;;;;;;;5093866;27;45488;-70
2023/06/18 00:08:09;;;;;;;;;18.00;17.25;;;;;;;;5088559;27;45504;-71
2023/06/18 00:10:35;;;;;;;;;18.00;17.00;;;;;;;;5093152;27;48118;-70
2023/06/18 00:13:00;;;;;;;;;18.67;17.00;;;;;;;;5090753;27;45349;-71
2023/06/18 00:15:25;;;;;;;;;15.33;14.33;;;;;;;;5087986;27;45414;-71
2023/06/18 00:17:51;;;;;;;;;16.00;16.00;;;;;;;;5080075;27;46192;-71
2023/06/18 00:20:16;;;;;;;;;18.25;16.00;;;;;;;;5095814;27;47387;-71
2023/06/18 00:22:41;;;;;;;;;16.25;14.25;;;;;;;;5083789;27;45267;-71
2023/06/18 00:25:07;;;;;;;;;15.75;15.00;;;;;;;;5094436;27;46687;-71
2023/06/18 00:27:32;;;;;;;;;16.00;16.00;;;;;;;;5101034;27;45328;-70
2023/06/18 00:29:57;;;;;;;;;16.00;15.00;;;;;;;;5084670;27;46428;-71
2023/06/18 00:32:22;;;;;;;;;17.67;14.33;;;;;;;;5083577;27;45376;-71
2023/06/18 00:34:48;;;;;;;;;19.25;18.00;;;;;;;;5093978;27;45379;-71
2023/06/18 00:37:13;;;;;;;;;17.00;17.00;;;;;;;;5100350;27;45187;-71
2023/06/18 00:39:38;;;;;;;;;17.33;16.00;;;;;;;;5094047;27;46952;-71
2023/06/18 00:42:05;;;;;;;;;18.67;16.67;;;;;;;;5079982;27;45405;-71
2023/06/18 00:44:31;;;;;;;;;16.25;15.75;;;;;;;;5088142;27;45461;-71
2023/06/18 00:46:56;;;;;;;;;17.00;16.00;;;;;;;;5084822;27;45399;-70
2023/06/18 00:49:22;;;;;;;;;15.25;15.25;;;;;;;;5080609;27;45553;-71
2023/06/18 00:51:48;;;;;;;;;16.00;16.00;;;;;;;;5082912;27;46887;-70
2023/06/18 00:54:14;;;;;;;;;16.00;16.00;;;;;;;;5082035;27;45288;-71
2023/06/18 00:56:50;;;;;;;;;17.25;15.50;;;;;;;;5090184;27;45540;-71
2023/06/18 00:59:21;;;;;;;;;16.00;15.25;;;;;;;;5080676;27;45854;-70
2023/06/18 01:01:46;;;;;;;;;17.00;16.25;;;;;;;;5088493;27;45247;-70
2023/06/18 01:04:12;;;;;;;;;12.75;9.75;;;;;;;;5093736;27;45419;-68
2023/06/18 01:07:52;;;;;;;;;;;;;;;;;;167987;27;215424515;-69
2023/06/18 01:10:20;;;;;;;;;0.00;0.00;;;;;;;;5112232;27;28657;-68
2023/06/18 01:12:48;;;;;;;;;0.00;0.00;;;;;;;;5101473;27;44623;-68
2023/06/18 01:15:13;;;;;;;;;0.00;0.00;;;;;;;;5132715;27;42924;-68
2023/06/18 01:17:40;;;;;;;;;0.00;0.00;;;;;;;;5125967;27;44503;-68
2023/06/18 01:20:09;;;;;;;;;0.00;0.00;;;;;;;;5107804;27;28548;-68
2023/06/18 01:22:37;;;;;;;;;0.00;0.00;;;;;;;;5117546;27;44260;-68
2023/06/18 01:25:04;;;;;;;;;0.00;0.00;;;;;;;;5118827;27;8811;-68
2023/06/18 01:27:34;;;;;;;;;0.00;0.00;;;;;;;;5130072;27;8804;-67
2023/06/18 01:30:03;;;;;;;;;0.00;0.00;;;;;;;;5135923;27;8741;-67
2023/06/18 01:32:28;;;;;;;;;0.00;0.00;;;;;;;;5125656;27;8791;-67
2023/06/18 01:34:57;;;;;;;;;0.00;0.00;;;;;;;;5126569;27;8796;-67
2023/06/18 01:37:28;;;;;;;;;0.00;0.00;;;;;;;;5121492;27;10356;-67
2023/06/18 01:40:12;;;;;;;;;0.00;0.00;;;;;;;;5129269;27;8741;-67
2023/06/18 01:42:42;;;;;;;;;0.00;0.00;;;;;;;;5120918;27;8799;-67
2023/06/18 01:45:11;;;;;;;;;0.00;0.00;;;;;;;;5136205;27;8797;-67
2023/06/18 01:47:37;;;;;;;;;0.00;0.00;;;;;;;;5126894;27;8792;-67
2023/06/18 01:50:03;;;;;;;;;0.00;0.00;;;;;;;;5117751;27;8775;-67
2023/06/18 01:52:30;;;;;;;;;0.00;0.00;;;;;;;;5127107;27;9506;-67
2023/06/18 01:54:59;;;;;;;;;0.00;0.00;;;;;;;;5123279;27;8829;-68
2023/06/18 01:57:24;;;;;;;;;0.00;0.00;;;;;;;;5128062;27;8803;-67
2023/06/18 01:59:50;;;;;;;;;0.00;0.00;;;;;;;;5137157;27;8820;-67
2023/06/18 02:02:15;;;;;;;;;0.00;0.00;;;;;;;;5132315;27;8788;-67
2023/06/18 02:04:43;;;;;;;;;0.00;0.00;;;;;;;;5129424;27;8824;-67
2023/06/18 19:11:41;;;;;;;;;3.75;3.75;;;;;;;;5148866;27;28513;-72
2023/06/18 19:14:06;;;;;;;;;3.00;3.00;;;;;;;;5130908;27;28659;-73
2023/06/18 19:16:31;;;;;;;;;2.33;2.33;;;;;;;;5119829;27;28486;-73
2023/06/18 19:18:56;;;;;;;;;5.00;3.33;;;;;;;;5123708;27;29802;-72
2023/06/18 19:21:22;;;;;;;;;2.50;2.00;;;;;;;;5125191;27;30224;-72
2023/06/18 19:23:48;;;;;;;;;7.25;6.25;;;;;;;;5123099;27;56550;-72
